createdAt,value
2023-02-02T00:00:07.003Z,3.30
2023-02-02T00:02:35.557Z,3.40
2023-02-02T00:05:05.895Z,3.40
2023-02-02T00:07:34.438Z,3.30
2023-02-02T00:10:02.919Z,3.40
2023-02-02T00:12:31.352Z,3.30
2023-02-02T00:14:59.823Z,3.30
2023-02-02T00:17:28.340Z,3.30
2023-02-02T00:19:56.919Z,3.30
2023-02-02T00:22:26.775Z,3.30
2023-02-02T00:24:55.254Z,3.20
2023-02-02T00:27:23.653Z,3.20
2023-02-02T00:29:53.706Z,3.20
2023-02-02T00:32:22.117Z,3.10
2023-02-02T00:34:50.508Z,3.10
2023-02-02T00:37:19.104Z,3.10
2023-02-02T00:39:49.201Z,3.00
2023-02-02T00:42:17.626Z,3.00
2023-02-02T00:45:03.665Z,3.00
2023-02-02T00:47:32.248Z,3.00
2023-02-02T00:50:00.789Z,3.00
2023-02-02T00:52:29.303Z,3.00
2023-02-02T00:54:59.191Z,3.00
2023-02-02T00:57:27.635Z,3.10
2023-02-02T00:59:56.214Z,3.00
2023-02-02T01:02:24.682Z,3.00
2023-02-02T01:04:53.439Z,3.00
2023-02-02T01:07:21.967Z,3.10
2023-02-02T01:09:50.539Z,3.10
2023-02-02T01:12:20.394Z,3.10
2023-02-02T01:14:48.917Z,3.20
2023-02-02T01:17:17.445Z,3.10
2023-02-02T01:19:45.879Z,3.20
2023-02-02T01:22:14.317Z,3.10
2023-02-02T01:24:42.722Z,3.10
2023-02-02T01:27:11.146Z,3.10
2023-02-02T01:29:41.660Z,3.10
2023-02-02T01:32:10.535Z,3.10
2023-02-02T01:34:41.624Z,3.00
2023-02-02T01:37:10.095Z,3.00
2023-02-02T01:39:38.552Z,3.00
2023-02-02T01:42:14.816Z,3.00
2023-02-02T01:45:15.055Z,3.00
2023-02-02T01:47:47.197Z,2.90
2023-02-02T01:50:18.036Z,2.90
2023-02-02T01:52:50.599Z,3.00
2023-02-02T01:55:23.535Z,2.90
2023-02-02T01:57:58.023Z,3.00
2023-02-02T02:00:28.296Z,3.00
2023-02-02T02:02:59.681Z,3.00
2023-02-02T02:05:32.289Z,3.00
2023-02-02T02:08:08.501Z,3.00
2023-02-02T02:10:37.178Z,3.00
2023-02-02T02:13:06.959Z,3.10
2023-02-02T02:15:56.905Z,3.10
2023-02-02T02:18:29.462Z,3.00
2023-02-02T02:21:43.270Z,3.00
2023-02-02T02:25:04.791Z,3.00
2023-02-02T02:28:13.463Z,3.00
2023-02-02T02:31:12.230Z,3.10
2023-02-02T02:33:47.178Z,3.20
2023-02-02T02:36:23.664Z,3.20
2023-02-02T02:38:57.710Z,3.30
2023-02-02T02:41:32.837Z,3.30
2023-02-02T02:44:07.787Z,3.30
2023-02-02T02:46:38.008Z,3.40
2023-02-02T02:49:10.906Z,3.40
2023-02-02T02:51:49.728Z,3.50
2023-02-02T02:54:22.202Z,3.60
2023-02-02T02:57:07.035Z,3.50
2023-02-02T02:59:44.143Z,3.60
2023-02-02T03:02:26.411Z,3.70
2023-02-02T03:05:08.977Z,3.70
2023-02-02T03:07:42.974Z,3.60
2023-02-02T03:10:14.974Z,3.60
2023-02-02T03:12:47.536Z,3.60
2023-02-02T03:15:16.901Z,3.70
2023-02-02T03:17:47.052Z,3.70
2023-02-02T03:20:17.788Z,3.70
2023-02-02T03:22:46.441Z,3.70
2023-02-02T03:25:16.410Z,3.70
2023-02-02T03:27:45.296Z,3.70
2023-02-02T03:30:15.264Z,3.70
2023-02-02T03:32:43.927Z,3.70
2023-02-02T03:35:12.391Z,3.70
2023-02-02T03:37:42.178Z,3.70
2023-02-02T03:40:11.321Z,3.80
2023-02-02T03:42:39.946Z,3.80
2023-02-02T03:45:09.512Z,3.70
2023-02-02T03:47:37.958Z,3.70
2023-02-02T03:50:09.755Z,3.70
2023-02-02T03:52:38.413Z,3.70
2023-02-02T03:55:09.276Z,3.70
2023-02-02T03:57:37.685Z,3.70
2023-02-02T04:00:07.228Z,3.70
2023-02-02T04:02:35.633Z,3.70
2023-02-02T04:05:04.040Z,3.70
2023-02-02T04:07:32.693Z,3.70
2023-02-02T04:10:01.145Z,3.70
2023-02-02T04:12:31.178Z,3.70
2023-02-02T04:14:59.758Z,3.60
2023-02-02T04:17:28.196Z,3.50
2023-02-02T04:19:58.666Z,3.50
2023-02-02T04:22:27.655Z,3.50
2023-02-02T04:24:56.108Z,3.50
2023-02-02T04:27:24.607Z,3.50
2023-02-02T04:29:54.372Z,3.50
2023-02-02T04:32:22.629Z,3.60
2023-02-02T04:34:50.928Z,3.60
2023-02-02T04:37:19.753Z,3.60
2023-02-02T04:39:50.643Z,3.60
2023-02-02T04:42:19.056Z,3.60
2023-02-02T04:44:47.494Z,3.70
2023-02-02T04:47:17.803Z,3.70
2023-02-02T04:49:46.200Z,3.70
2023-02-02T04:52:14.606Z,3.70
2023-02-02T04:54:43.134Z,3.70
2023-02-02T04:57:11.772Z,3.70
2023-02-02T04:59:42.338Z,3.70
2023-02-02T05:02:10.990Z,3.70
2023-02-02T05:04:40.902Z,3.70
2023-02-02T05:07:09.620Z,3.70
2023-02-02T05:09:38.253Z,3.70
2023-02-02T05:12:06.720Z,3.70
2023-02-02T05:14:35.435Z,3.70
2023-02-02T05:17:03.838Z,3.70
2023-02-02T05:19:32.300Z,3.70
2023-02-02T05:22:02.124Z,3.60
2023-02-02T05:24:30.397Z,3.50
2023-02-02T05:27:00.665Z,3.40
2023-02-02T05:29:29.367Z,3.40
2023-02-02T05:31:58.899Z,3.40
2023-02-02T05:34:27.468Z,3.40
2023-02-02T05:36:56.018Z,3.50
2023-02-02T05:39:25.916Z,3.50
2023-02-02T05:41:54.322Z,3.50
2023-02-02T05:44:22.783Z,3.50
2023-02-02T05:46:51.557Z,3.40
2023-02-02T05:49:19.984Z,3.40
2023-02-02T05:51:51.262Z,3.40
2023-02-02T05:54:20.699Z,3.40
2023-02-02T05:56:51.878Z,3.40
2023-02-02T05:59:20.585Z,3.40
2023-02-02T06:01:49.992Z,3.40
2023-02-02T06:04:18.491Z,3.40
2023-02-02T06:06:47.942Z,3.30
2023-02-02T06:09:16.444Z,3.30
2023-02-02T06:11:45.180Z,3.30
2023-02-02T06:14:15.093Z,3.30
2023-02-02T06:16:43.783Z,3.30
2023-02-02T06:19:12.242Z,3.30
2023-02-02T06:21:41.100Z,3.30
2023-02-02T06:24:09.793Z,3.30
2023-02-02T06:26:38.280Z,3.20
2023-02-02T06:29:06.872Z,3.20
2023-02-02T06:31:36.929Z,3.20
2023-02-02T06:34:05.550Z,3.20
2023-02-02T06:36:34.001Z,3.20
2023-02-02T06:39:04.726Z,3.20
2023-02-02T06:41:33.155Z,3.20
2023-02-02T06:44:01.897Z,3.30
2023-02-02T06:46:30.613Z,3.20
2023-02-02T06:49:01.092Z,3.20
2023-02-02T06:51:29.633Z,3.20
2023-02-02T06:53:59.572Z,3.20
2023-02-02T06:56:28.386Z,3.10
2023-02-02T06:58:56.789Z,3.10
2023-02-02T07:01:25.311Z,3.10
2023-02-02T07:03:54.099Z,3.10
2023-02-02T07:06:25.634Z,3.10
2023-02-02T07:09:01.740Z,3.10
2023-02-02T07:11:31.439Z,3.10
2023-02-02T07:14:00.473Z,3.20
2023-02-02T07:16:28.762Z,3.20
2023-02-02T07:18:58.125Z,3.20
2023-02-02T07:21:30.229Z,3.20
2023-02-02T07:23:59.441Z,3.20
2023-02-02T07:26:27.928Z,3.20
2023-02-02T07:28:56.824Z,3.30
2023-02-02T07:31:26.842Z,3.20
2023-02-02T07:33:55.921Z,3.20
2023-02-02T07:36:27.483Z,3.20
2023-02-02T07:38:57.398Z,3.10
2023-02-02T07:41:27.889Z,3.00
2023-02-02T07:43:56.504Z,3.00
2023-02-02T07:46:25.326Z,2.90
2023-02-02T07:48:55.943Z,2.90
2023-02-02T07:51:25.589Z,2.90
2023-02-02T07:53:58.404Z,2.90
2023-02-02T07:56:28.807Z,2.90
2023-02-02T07:58:58.357Z,2.90
2023-02-02T08:01:29.279Z,2.90
2023-02-02T08:04:00.578Z,2.90
2023-02-02T08:06:32.102Z,2.80
2023-02-02T08:09:03.416Z,2.80
2023-02-02T08:11:32.187Z,2.70
2023-02-02T08:14:02.853Z,2.80
2023-02-02T08:16:33.118Z,2.80
2023-02-02T08:19:01.921Z,2.80
2023-02-02T08:21:30.536Z,2.90
2023-02-02T08:23:59.058Z,2.90
2023-02-02T08:26:31.117Z,2.90
2023-02-02T08:29:02.143Z,2.90
2023-02-02T08:31:33.439Z,2.90
2023-02-02T08:34:02.173Z,2.90
2023-02-02T08:36:31.819Z,2.90
2023-02-02T08:39:03.393Z,3.00
2023-02-02T08:41:33.700Z,3.00
2023-02-02T08:44:02.489Z,3.00
2023-02-02T08:46:31.434Z,3.00
2023-02-02T08:49:00.514Z,2.90
2023-02-02T08:51:29.403Z,2.80
2023-02-02T08:53:57.994Z,2.80
2023-02-02T08:56:26.507Z,2.80
2023-02-02T08:58:59.736Z,2.80
2023-02-02T09:01:30.609Z,2.70
2023-02-02T09:04:00.799Z,2.60
2023-02-02T09:06:32.509Z,2.60
2023-02-02T09:09:00.992Z,2.50
2023-02-02T09:11:30.081Z,2.30
2023-02-02T09:14:02.233Z,2.20
2023-02-02T09:16:31.747Z,2.10
2023-02-02T09:19:00.443Z,2.10
2023-02-02T09:21:28.871Z,2.10
2023-02-02T09:23:57.335Z,2.10
2023-02-02T09:26:28.191Z,2.00
2023-02-02T09:29:02.450Z,2.00
2023-02-02T09:31:32.781Z,1.90
2023-02-02T09:34:06.462Z,1.80
2023-02-02T09:36:35.109Z,1.90
2023-02-02T09:39:03.901Z,2.10
2023-02-02T09:42:12.719Z,2.20
2023-02-02T09:45:03.185Z,2.30
2023-02-02T09:47:50.965Z,2.30
2023-02-02T09:50:37.471Z,2.30
2023-02-02T09:53:11.791Z,2.40
2023-02-02T09:55:42.553Z,2.50
2023-02-02T09:58:17.789Z,2.60
2023-02-02T10:00:54.551Z,2.70
2023-02-02T10:03:28.679Z,2.90
2023-02-02T10:06:03.525Z,3.10
2023-02-02T10:08:37.727Z,3.30
2023-02-02T10:11:16.751Z,3.40
2023-02-02T10:13:47.402Z,3.50
2023-02-02T10:16:20.063Z,3.50
2023-02-02T10:18:53.671Z,3.40
2023-02-02T10:21:30.558Z,3.40
2023-02-02T10:24:01.967Z,3.50
2023-02-02T10:26:38.504Z,3.50
2023-02-02T10:29:14.035Z,3.70
2023-02-02T10:32:01.778Z,3.70
2023-02-02T10:34:37.619Z,3.60
2023-02-02T10:37:18.392Z,3.50
2023-02-02T10:40:05.301Z,3.40
2023-02-02T10:42:45.428Z,3.50
2023-02-02T10:45:18.722Z,3.50
2023-02-02T10:47:49.032Z,3.60
2023-02-02T10:50:19.921Z,3.70
2023-02-02T10:52:51.235Z,3.60
2023-02-02T10:55:26.252Z,3.50
2023-02-02T10:58:01.988Z,3.50
2023-02-02T11:00:39.966Z,3.50
2023-02-02T11:03:12.149Z,3.60
2023-02-02T11:05:57.952Z,3.70
2023-02-02T11:08:32.590Z,3.90
2023-02-02T11:11:12.977Z,4.10
2023-02-02T11:13:46.258Z,4.10
2023-02-02T11:16:38.899Z,4.20
2023-02-02T11:19:29.921Z,4.30
2023-02-02T11:22:00.111Z,4.30
2023-02-02T11:24:30.529Z,4.40
2023-02-02T11:27:03.863Z,4.40
2023-02-02T11:29:37.444Z,4.40
2023-02-02T11:32:27.797Z,4.40
2023-02-02T11:35:20.894Z,4.50
2023-02-02T11:37:58.770Z,4.50
2023-02-02T11:40:33.644Z,4.20
2023-02-02T11:43:06.325Z,4.10
2023-02-02T11:45:38.032Z,4.00
2023-02-02T11:48:11.566Z,4.10
2023-02-02T11:50:47.879Z,4.10
2023-02-02T11:53:29.223Z,4.10
2023-02-02T11:56:00.695Z,4.00
2023-02-02T11:58:31.227Z,3.90
2023-02-02T12:01:03.302Z,3.90
2023-02-02T12:03:35.038Z,3.80
2023-02-02T12:06:20.852Z,3.50
2023-02-02T12:08:49.999Z,3.30
2023-02-02T12:11:33.635Z,3.10
2023-02-02T12:14:18.347Z,2.70
2023-02-02T12:17:08.066Z,2.50
2023-02-02T12:19:43.839Z,2.40
2023-02-02T12:22:24.330Z,2.30
2023-02-02T12:24:58.171Z,2.30
2023-02-02T12:27:38.494Z,2.20
2023-02-02T12:30:26.166Z,2.10
2023-02-02T12:33:13.740Z,2.10
2023-02-02T12:35:56.410Z,2.10
2023-02-02T12:38:40.258Z,2.10
2023-02-02T12:41:32.333Z,2.10
2023-02-02T12:44:06.922Z,2.10
2023-02-02T12:46:48.965Z,2.10
2023-02-02T12:49:53.867Z,2.00
2023-02-02T12:52:49.042Z,1.90
2023-02-02T12:55:29.040Z,1.90
2023-02-02T12:58:25.126Z,1.90
2023-02-02T13:01:26.340Z,1.90
2023-02-02T13:04:48.744Z,1.90
2023-02-02T13:07:43.058Z,1.90
2023-02-02T13:10:24.065Z,1.90
2023-02-02T13:12:56.709Z,1.90
2023-02-02T13:15:33.261Z,1.90
2023-02-02T13:18:05.061Z,2.00
2023-02-02T13:20:40.858Z,3.40
2023-02-02T13:23:14.990Z,3.60
2023-02-02T13:26:16.882Z,3.40
2023-02-02T13:29:09.945Z,4.30
2023-02-02T13:31:49.316Z,4.30
2023-02-02T13:34:26.794Z,3.50
2023-02-02T13:37:04.073Z,3.10
2023-02-02T13:39:38.166Z,2.90
2023-02-02T13:42:17.033Z,2.80
2023-02-02T13:44:51.621Z,2.80
2023-02-02T13:47:24.805Z,2.70
2023-02-02T13:49:57.076Z,2.70
2023-02-02T13:52:41.842Z,2.70
2023-02-02T13:55:37.927Z,2.70
2023-02-02T13:58:32.511Z,2.70
2023-02-02T14:01:04.525Z,2.60
2023-02-02T14:03:39.785Z,2.60
2023-02-02T14:06:15.382Z,2.60
2023-02-02T14:08:50.683Z,2.80
2023-02-02T14:11:26.600Z,2.90
2023-02-02T14:14:18.016Z,2.90
2023-02-02T14:16:51.691Z,2.90
2023-02-02T14:19:50.834Z,2.90
2023-02-02T14:22:38.724Z,2.90
2023-02-02T14:25:41.549Z,2.90
2023-02-02T14:28:12.427Z,3.00
2023-02-02T14:30:42.560Z,3.00
2023-02-02T14:33:26.362Z,3.00
2023-02-02T14:36:02.211Z,3.10
2023-02-02T14:39:11.986Z,3.10
2023-02-02T14:42:04.618Z,3.20
2023-02-02T14:44:37.612Z,3.50
2023-02-02T14:47:42.363Z,4.10
2023-02-02T14:50:15.563Z,4.40
2023-02-02T14:52:44.759Z,4.30
2023-02-02T14:55:21.032Z,4.20
2023-02-02T14:57:57.976Z,3.90
2023-02-02T15:00:29.553Z,3.90
2023-02-02T15:03:34.789Z,3.70
2023-02-02T15:06:05.493Z,3.70
2023-02-02T15:08:33.894Z,3.70
2023-02-02T15:11:22.216Z,3.70
2023-02-02T15:14:07.453Z,3.60
2023-02-02T15:16:39.652Z,3.60
2023-02-02T15:19:28.577Z,3.50
2023-02-02T15:22:00.633Z,3.40
2023-02-02T15:24:31.920Z,3.30
2023-02-02T15:27:03.027Z,3.30
2023-02-02T15:29:38.315Z,3.30
2023-02-02T15:32:08.358Z,3.20
2023-02-02T15:34:43.705Z,3.20
2023-02-02T15:37:16.884Z,3.20
2023-02-02T15:39:48.982Z,3.10
2023-02-02T15:42:37.050Z,3.10
2023-02-02T15:45:07.205Z,3.10
2023-02-02T15:47:40.629Z,3.10
2023-02-02T15:50:21.107Z,3.10
2023-02-02T15:52:51.434Z,3.10
2023-02-02T15:55:22.842Z,3.10
2023-02-02T15:57:54.296Z,3.10
2023-02-02T16:00:29.245Z,3.00
2023-02-02T16:03:03.083Z,3.00
2023-02-02T16:05:49.056Z,2.90
2023-02-02T16:08:20.998Z,2.80
2023-02-02T16:10:50.432Z,2.70
2023-02-02T16:13:25.237Z,2.60
2023-02-02T16:15:58.434Z,2.60
2023-02-02T16:18:27.985Z,2.50
2023-02-02T16:21:01.819Z,2.40
2023-02-02T16:23:34.544Z,2.40
2023-02-02T16:26:06.006Z,2.40
2023-02-02T16:28:35.785Z,2.40
2023-02-02T16:31:05.309Z,2.30
2023-02-02T16:33:39.322Z,2.30
2023-02-02T16:36:25.932Z,2.20
2023-02-02T16:38:56.129Z,2.20
2023-02-02T16:41:29.143Z,2.10
2023-02-02T16:43:57.912Z,2.10
2023-02-02T16:46:45.681Z,2.10
2023-02-02T16:49:19.811Z,2.10
2023-02-02T16:52:07.930Z,2.10
2023-02-02T16:54:36.495Z,2.20
2023-02-02T16:57:06.452Z,2.20
2023-02-02T16:59:37.729Z,2.20
2023-02-02T17:02:24.302Z,2.20
2023-02-02T17:04:57.583Z,2.20
2023-02-02T17:07:29.493Z,2.10
2023-02-02T17:10:25.324Z,2.20
2023-02-02T17:12:54.008Z,2.10
2023-02-02T17:15:35.025Z,2.10
2023-02-02T17:18:04.713Z,2.10
2023-02-02T17:20:35.055Z,2.10
2023-02-02T17:23:07.144Z,2.20
2023-02-02T17:25:38.577Z,2.20
2023-02-02T17:28:12.805Z,2.20
2023-02-02T17:30:42.657Z,2.10
2023-02-02T17:33:14.990Z,2.10
2023-02-02T17:35:54.481Z,2.00
2023-02-02T17:38:27.755Z,2.00
2023-02-02T17:41:01.108Z,2.00
2023-02-02T17:43:30.616Z,1.90
2023-02-02T17:46:01.187Z,1.90
2023-02-02T17:48:29.589Z,1.90
2023-02-02T17:50:58.513Z,1.90
2023-02-02T17:53:33.308Z,1.90
2023-02-02T17:56:02.584Z,1.80
2023-02-02T17:58:31.371Z,1.90
2023-02-02T18:00:59.952Z,1.90
2023-02-02T18:03:33.957Z,1.90
2023-02-02T18:06:03.691Z,2.00
2023-02-02T18:08:34.274Z,2.00
2023-02-02T18:11:02.887Z,2.00
2023-02-02T18:13:31.390Z,2.00
2023-02-02T18:16:00.451Z,2.10
2023-02-02T18:18:29.990Z,2.00
2023-02-02T18:20:59.111Z,2.00
2023-02-02T18:23:28.492Z,2.00
2023-02-02T18:25:58.537Z,2.00
2023-02-02T18:28:27.108Z,1.90
2023-02-02T18:30:55.726Z,1.80
2023-02-02T18:33:24.642Z,1.90
2023-02-02T18:35:53.182Z,1.80
2023-02-02T18:38:22.065Z,1.80
2023-02-02T18:40:57.300Z,1.90
2023-02-02T18:43:27.365Z,1.80
2023-02-02T18:46:00.786Z,1.70
2023-02-02T18:48:30.499Z,1.70
2023-02-02T18:50:58.770Z,1.70
2023-02-02T18:53:27.082Z,1.70
2023-02-02T18:55:55.474Z,1.60
2023-02-02T18:58:26.111Z,1.70
2023-02-02T19:00:55.984Z,1.70
2023-02-02T19:03:24.820Z,1.70
2023-02-02T19:06:10.942Z,1.70
2023-02-02T19:08:39.326Z,1.70
2023-02-02T19:11:15.337Z,1.60
2023-02-02T19:13:43.815Z,1.50
2023-02-02T19:16:20.328Z,1.50
2023-02-02T19:18:48.752Z,1.40
2023-02-02T19:21:17.227Z,1.30
2023-02-02T19:23:46.534Z,1.30
2023-02-02T19:26:24.529Z,1.30
2023-02-02T19:28:54.151Z,1.10
2023-02-02T19:31:24.106Z,0.90
2023-02-02T19:33:54.258Z,0.70
2023-02-02T19:36:24.538Z,0.50
2023-02-02T19:38:56.787Z,0.30
2023-02-02T19:41:26.814Z,0.30
2023-02-02T19:43:59.362Z,0.20
2023-02-02T19:46:31.144Z,0.20
2023-02-02T19:49:05.536Z,0.20
2023-02-02T19:51:43.256Z,0.40
2023-02-02T19:54:26.738Z,0.20
2023-02-02T19:56:58.412Z,0.10
2023-02-02T19:59:33.165Z,0.00
2023-02-02T20:02:32.226Z,0.00
2023-02-02T20:05:07.657Z,-0.20
2023-02-02T20:07:36.038Z,-0.30
2023-02-02T20:10:16.295Z,-0.50
2023-02-02T20:12:44.737Z,-0.60
2023-02-02T20:15:26.734Z,-0.60
2023-02-02T20:17:58.757Z,-0.60
2023-02-02T20:20:29.568Z,-0.50
2023-02-02T20:22:58.774Z,-0.60
2023-02-02T20:25:29.155Z,-0.60
2023-02-02T20:27:58.933Z,-0.50
2023-02-02T20:30:31.045Z,-0.50
2023-02-02T20:33:03.631Z,-0.50
2023-02-02T20:35:37.977Z,-0.40
2023-02-02T20:38:19.029Z,-0.40
2023-02-02T20:40:48.091Z,-0.40
2023-02-02T20:43:16.528Z,-0.40
2023-02-02T20:45:45.197Z,-0.40
2023-02-02T20:48:15.561Z,-0.40
2023-02-02T20:50:46.655Z,-0.40
2023-02-02T20:53:16.460Z,-0.40
2023-02-02T20:55:45.208Z,-0.40
2023-02-02T20:58:13.984Z,-0.50
2023-02-02T21:00:42.730Z,-0.50
2023-02-02T21:03:13.180Z,-0.60
2023-02-02T21:05:43.080Z,-0.60
2023-02-02T21:08:11.701Z,-0.50
2023-02-02T21:10:40.179Z,-0.40
2023-02-02T21:13:08.636Z,-0.40
2023-02-02T21:15:37.079Z,-0.40
2023-02-02T21:18:05.767Z,-0.40
2023-02-02T21:20:34.188Z,-0.50
2023-02-02T21:23:04.019Z,-0.50
2023-02-02T21:25:32.524Z,-0.60
2023-02-02T21:28:01.112Z,-0.70
2023-02-02T21:30:30.014Z,-0.70
2023-02-02T21:32:59.097Z,-0.70
2023-02-02T21:35:27.809Z,-0.70
2023-02-02T21:37:58.657Z,-0.70
2023-02-02T21:40:32.808Z,-0.70
2023-02-02T21:43:02.715Z,-0.80
2023-02-02T21:45:36.471Z,-0.70
2023-02-02T21:48:08.048Z,-0.80
2023-02-02T21:50:38.714Z,-0.80
2023-02-02T21:53:19.532Z,-0.80
2023-02-02T21:55:53.532Z,-0.70
2023-02-02T21:58:26.010Z,-0.70
2023-02-02T22:00:56.664Z,-0.60
2023-02-02T22:03:33.011Z,-0.50
2023-02-02T22:06:15.204Z,-0.40
2023-02-02T22:08:43.670Z,-0.40
2023-02-02T22:11:31.121Z,-0.30
2023-02-02T22:14:12.361Z,-0.30
2023-02-02T22:16:45.265Z,-0.20
2023-02-02T22:19:26.108Z,-0.20
2023-02-02T22:21:55.453Z,-0.10
2023-02-02T22:24:24.241Z,-0.10
2023-02-02T22:26:54.058Z,-0.10
2023-02-02T22:29:24.512Z,0.00
2023-02-02T22:31:52.999Z,0.00
2023-02-02T22:34:21.416Z,0.00
2023-02-02T22:36:50.295Z,0.00
2023-02-02T22:39:18.676Z,0.00
2023-02-02T22:41:47.176Z,0.00
2023-02-02T22:44:17.252Z,0.00
2023-02-02T22:46:45.680Z,0.00
2023-02-02T22:49:14.120Z,0.00
2023-02-02T22:51:42.514Z,0.10
2023-02-02T22:54:11.076Z,0.10
2023-02-02T22:56:39.490Z,0.10
2023-02-02T22:59:07.909Z,0.10
2023-02-02T23:01:37.695Z,0.00
2023-02-02T23:04:06.339Z,0.00
2023-02-02T23:06:34.814Z,0.00
2023-02-02T23:09:03.289Z,0.00
2023-02-02T23:11:31.713Z,0.00
2023-02-02T23:14:00.126Z,0.10
2023-02-02T23:16:28.630Z,0.10
2023-02-02T23:18:58.526Z,0.10
2023-02-02T23:21:27.052Z,0.10
2023-02-02T23:23:56.438Z,0.20
2023-02-02T23:26:25.291Z,0.20
2023-02-02T23:28:54.075Z,0.20
2023-02-02T23:31:22.795Z,0.20
2023-02-02T23:33:51.850Z,0.20
2023-02-02T23:36:21.688Z,0.20
2023-02-02T23:38:50.141Z,0.20
2023-02-02T23:41:19.425Z,0.20
2023-02-02T23:43:49.760Z,0.20
2023-02-02T23:46:18.763Z,0.20
2023-02-02T23:48:47.393Z,0.20
2023-02-02T23:51:16.106Z,0.20
2023-02-02T23:53:46.020Z,0.20
2023-02-02T23:56:14.445Z,0.20
2023-02-02T23:58:43.175Z,0.20
